Barksdale AFB, Louisiana
Current Conditions -  °F | °C
As of 3:58 AM on Tuesday 21 Oct 2014 (Local Time) from KBAD Reporting Station
Clear Clear  
Wind Chill: 55°   Ceiling: Unl
Heat Index: 55°   Visibility: 10mi
Dew Point: 54°   Wind: 0mph
Humidity: 97%   Direction: NA
Pressure: 30.03"   Gusts: NA
Location:  32.5°N, 93.67°W
Report Text: KBAD 210858Z AUTO 00000KT 10SM CLR 13/12 A3003 RMK AO2 SLP171 T01260121 57001
Loading
Personal Weather Stations






























Interactive Weather Map
Tropical Storm Tracking
New forecast layout! Learn more

10-Day Weather Forecast

Advertisements
Track Severe Weather on mobile